Time;durP1;ratioP1;P1;durP2;ratioP2;P2;SDS_P1;SDS_P2;PMS_P1;PMS_P2;Temp;Humidity;BMP_temperature;BMP_pressure;BME280_temperature;BME280_humidity;BME280_pressure;Samples;Min_cycle;Max_cycle;Signal;HPM_P1;HPM_P2
2023/07/25 00:00:26;;;;;;;3.72;1.60;;;;;;;17.74;47.28;100224.34;5046304;28;20153;-72
2023/07/25 00:02:54;;;;;;;2.47;1.30;;;;;;;17.73;47.40;100225.34;5054533;28;20041;-70
2023/07/25 00:05:21;;;;;;;3.53;1.77;;;;;;;17.73;47.55;100230.06;5049129;28;20110;-72
2023/07/25 00:07:49;;;;;;;3.50;1.83;;;;;;;17.74;47.25;100231.78;5042793;28;20052;-72
2023/07/25 00:10:19;;;;;;;3.00;1.65;;;;;;;17.75;47.24;100237.13;5047461;28;20056;-72
2023/07/25 00:12:52;;;;;;;5.75;2.08;;;;;;;17.72;47.13;100233.88;5039501;28;20138;-71
2023/07/25 00:15:20;;;;;;;2.88;1.70;;;;;;;17.71;47.54;100234.94;5030749;28;20056;-71
2023/07/25 00:17:48;;;;;;;2.58;1.40;;;;;;;17.70;47.20;100234.06;5048653;28;20135;-71
2023/07/25 00:20:16;;;;;;;2.60;1.75;;;;;;;17.70;47.11;100234.06;5048161;28;20037;-72
2023/07/25 00:22:44;;;;;;;3.53;1.60;;;;;;;17.70;47.37;100233.22;5046077;28;20037;-71
2023/07/25 00:25:12;;;;;;;3.45;1.60;;;;;;;17.70;47.51;100230.44;5047239;28;20491;-71
2023/07/25 00:27:41;;;;;;;3.85;1.70;;;;;;;17.72;47.06;100231.13;5051501;28;20040;-71
2023/07/25 00:30:10;;;;;;;3.60;2.08;;;;;;;17.69;47.31;100231.50;5049840;28;20072;-72
2023/07/25 00:32:39;;;;;;;4.55;2.13;;;;;;;17.67;47.22;100231.69;5050597;28;20049;-71
2023/07/25 00:35:08;;;;;;;3.50;2.00;;;;;;;17.68;47.23;100235.31;5026747;28;20127;-71
2023/07/25 00:37:36;;;;;;;4.80;2.00;;;;;;;17.67;46.98;100231.69;5044147;28;20083;-72
2023/07/25 00:40:04;;;;;;;3.58;2.03;;;;;;;17.67;46.96;100234.44;5046442;28;20048;-71
2023/07/25 00:42:32;;;;;;;4.38;2.40;;;;;;;17.66;46.90;100234.66;5050741;28;20037;-71
2023/07/25 00:45:01;;;;;;;4.43;2.13;;;;;;;17.67;47.08;100236.38;5057595;28;20408;-71
2023/07/25 00:47:29;;;;;;;5.10;2.00;;;;;;;17.65;47.15;100242.09;5046478;28;20067;-71
2023/07/25 00:49:58;;;;;;;3.33;1.90;;;;;;;17.66;47.38;100242.94;5046036;28;20505;-71
2023/07/25 00:52:26;;;;;;;5.13;1.92;;;;;;;17.65;47.12;100247.63;5052626;28;20041;-71
2023/07/25 00:54:54;;;;;;;3.75;2.08;;;;;;;17.64;47.36;100247.84;5049634;28;20056;-71
2023/07/25 00:57:22;;;;;;;5.90;1.95;;;;;;;17.64;47.34;100245.06;5055883;28;20075;-71
2023/07/25 00:59:50;;;;;;;4.82;1.83;;;;;;;17.62;47.36;100248.03;5035404;28;20037;-72
2023/07/25 01:02:19;;;;;;;2.50;1.60;;;;;;;17.64;46.96;100243.16;5032257;28;20065;-71
2023/07/25 01:04:47;;;;;;;3.40;1.75;;;;;;;17.63;47.53;100248.91;5054650;28;20129;-71
2023/07/25 01:07:17;;;;;;;2.92;1.40;;;;;;;17.64;46.90;100242.31;5057297;28;20052;-71
2023/07/25 01:09:46;;;;;;;3.28;1.77;;;;;;;17.62;47.00;100231.44;5051746;28;20045;-72
2023/07/25 01:12:14;;;;;;;3.25;1.88;;;;;;;17.62;47.28;100230.56;5057984;28;20040;-71
2023/07/25 01:14:42;;;;;;;2.97;1.65;;;;;;;17.61;47.10;100235.25;5053393;28;20415;-72
2023/07/25 01:17:13;;;;;;;3.47;1.55;;;;;;;17.62;47.37;100234.19;5051869;28;20373;-72
2023/07/25 01:19:46;;;;;;;4.47;1.60;;;;;;;17.62;47.00;100227.81;5023015;28;20068;-71
2023/07/25 01:22:14;;;;;;;;;;;;;;;17.32;47.70;100224.22;5052255;28;20076;-71
2023/07/25 01:24:45;;;;;;;3.67;1.45;;;;;;;17.57;47.13;100214.53;5032347;28;19999;-72
2023/07/25 01:27:15;;;;;;;3.13;1.58;;;;;;;17.56;47.52;100214.75;5049464;28;20045;-72
2023/07/25 01:29:43;;;;;;;2.72;1.42;;;;;;;17.58;47.20;100215.41;5045879;28;20487;-71
2023/07/25 01:32:12;;;;;;;4.20;1.65;;;;;;;17.58;47.30;100213.50;5051642;28;20037;-71
2023/07/25 01:34:40;;;;;;;3.30;1.40;;;;;;;17.57;46.95;100208.16;5048366;28;20045;-72
2023/07/25 01:37:09;;;;;;;2.80;1.63;;;;;;;17.57;47.12;100200.69;5034997;28;20115;-72
2023/07/25 01:39:38;;;;;;;3.35;1.90;;;;;;;17.57;47.38;100197.06;5038815;28;20044;-71
2023/07/25 01:42:07;;;;;;;2.95;1.58;;;;;;;17.57;47.37;100197.06;5034175;28;20057;-71
2023/07/25 01:44:36;;;;;;;3.78;1.60;;;;;;;17.55;47.15;100193.69;5048685;28;20041;-71
2023/07/25 01:47:04;;;;;;;3.58;1.90;;;;;;;17.55;47.08;100193.69;5044000;28;20037;-71
2023/07/25 01:49:32;;;;;;;3.45;1.52;;;;;;;17.55;47.25;100186.22;5046349;28;20037;-71
2023/07/25 01:52:00;;;;;;;3.45;1.80;;;;;;;17.55;47.44;100182.59;5046639;28;20045;-71
2023/07/25 01:54:27;;;;;;;4.32;1.60;;;;;;;17.53;47.25;100185.56;5034617;28;20514;-71
2023/07/25 01:56:55;;;;;;;3.05;1.60;;;;;;;17.53;47.13;100184.69;5054724;28;20140;-72
2023/07/25 01:59:25;;;;;;;4.82;2.05;;;;;;;17.53;47.02;100187.47;5035057;28;20045;-72
2023/07/25 02:01:52;;;;;;;3.28;1.88;;;;;;;17.52;46.88;100180.22;5046989;28;20522;-70
2023/07/25 02:04:21;;;;;;;5.15;1.75;;;;;;;17.51;46.94;100182.13;5032995;28;20574;-71
2023/07/25 02:06:48;;;;;;;3.90;1.80;;;;;;;17.50;47.18;100176.78;5034281;28;20503;-71
2023/07/25 02:09:16;;;;;;;3.58;1.90;;;;;;;17.49;47.30;100178.69;5047572;28;20033;-71
2023/07/25 02:11:44;;;;;;;3.80;1.67;;;;;;;17.48;46.95;100178.91;5038945;28;20136;-71
2023/07/25 02:14:12;;;;;;;4.22;2.00;;;;;;;17.47;46.99;100178.06;5058872;28;20044;-71
2023/07/25 02:16:42;;;;;;;4.20;2.00;;;;;;;17.47;46.40;100178.06;5032961;28;20041;-71
2023/07/25 02:19:10;;;;;;;3.67;1.80;;;;;;;17.45;46.92;100179.28;5030769;28;20170;-71
2023/07/25 02:21:38;;;;;;;4.28;2.10;;;;;;;17.44;46.59;100177.56;5033303;28;20151;-71
2023/07/25 02:24:06;;;;;;;3.55;1.80;;;;;;;17.44;46.71;100170.13;5034366;28;20108;-71
2023/07/25 02:26:34;;;;;;;3.58;2.03;;;;;;;17.41;46.63;100167.75;5036113;28;20072;-71
2023/07/25 02:29:02;;;;;;;3.65;2.10;;;;;;;17.40;46.40;100164.13;5056329;28;20167;-71
2023/07/25 02:31:29;;;;;;;4.25;1.88;;;;;;;17.38;46.49;100168.16;5039324;28;20128;-71
2023/07/25 02:33:59;;;;;;;4.70;1.90;;;;;;;17.37;46.43;100167.31;5040734;28;20122;-71
2023/07/25 02:36:27;;;;;;;5.57;1.80;;;;;;;17.33;46.32;100177.03;5053561;28;20128;-71
2023/07/25 02:38:55;;;;;;;3.83;1.80;;;;;;;17.30;46.00;100171.91;5074242;22;20044;-81
2023/07/25 02:41:25;;;;;;;3.83;1.65;;;;;;;17.29;46.09;100167.44;5068927;28;20049;-82
2023/07/25 02:43:52;;;;;;;3.00;1.80;;;;;;;17.28;46.17;100176.75;5069491;28;20047;-81
2023/07/25 02:46:20;;;;;;;3.35;1.58;;;;;;;17.26;45.93;100167.81;5073049;28;20116;-82
2023/07/25 02:48:48;;;;;;;3.60;1.73;;;;;;;17.24;46.11;100167.13;5085724;28;20043;-82
2023/07/25 02:51:17;;;;;;;3.90;1.90;;;;;;;17.25;45.68;100176.28;5112373;27;20484;-82
2023/07/25 02:53:45;;;;;;;3.25;1.77;;;;;;;17.20;45.79;100171.34;5094425;28;20411;-83
2023/07/25 02:56:13;;;;;;;3.40;1.63;;;;;;;17.20;46.18;100170.50;5085725;28;20070;-81
2023/07/25 02:58:41;;;;;;;3.90;1.73;;;;;;;17.18;46.11;100175.34;5087460;28;20506;-82
2023/07/25 03:01:09;;;;;;;3.42;1.58;;;;;;;17.16;46.16;100174.69;5090370;28;20097;-81
2023/07/25 03:03:38;;;;;;;2.55;1.63;;;;;;;17.15;45.58;100184.06;5090252;28;20035;-83
2023/07/25 03:06:06;;;;;;;3.00;1.67;;;;;;;17.12;45.91;100185.28;5083735;28;20130;-80
2023/07/25 03:08:35;;;;;;;2.90;1.50;;;;;;;17.15;45.65;100184.91;5110422;27;20279;-82
2023/07/25 03:11:03;;;;;;;4.13;1.55;;;;;;;17.13;45.91;100194.44;5091944;28;20047;-81
2023/07/25 03:13:31;;;;;;;3.83;1.67;;;;;;;17.09;46.26;100182.91;5092445;28;20502;-82
2023/07/25 03:15:59;;;;;;;4.20;1.83;;;;;;;17.09;46.07;100182.03;5088091;28;20044;-82
2023/07/25 03:18:27;;;;;;;3.00;1.60;;;;;;;17.10;45.98;100183.75;5091999;28;20521;-80
2023/07/25 03:20:55;;;;;;;3.85;1.88;;;;;;;17.08;46.03;100180.31;5108508;28;20043;-82
2023/07/25 03:23:23;;;;;;;4.80;1.70;;;;;;;17.08;46.01;100178.41;5089213;28;20138;-82
2023/07/25 03:25:52;;;;;;;4.88;2.45;;;;;;;17.09;45.60;100170.97;5103834;28;20130;-81
2023/07/25 03:28:20;;;;;;;4.45;1.80;;;;;;;17.06;45.97;100166.72;5086196;28;20054;-83
2023/07/25 03:30:48;;;;;;;5.47;1.73;;;;;;;17.05;45.85;100169.66;5082758;28;20046;-82
2023/07/25 03:33:16;;;;;;;6.03;2.35;;;;;;;17.03;46.01;100167.09;5088563;28;20090;-80
2023/07/25 03:35:44;;;;;;;3.03;2.00;;;;;;;17.02;45.77;100168.13;5086948;28;20147;-81
2023/07/25 03:38:12;;;;;;;4.57;2.13;;;;;;;17.00;46.01;100153.66;5063583;28;20584;-82
2023/07/25 03:40:40;;;;;;;4.70;2.30;;;;;;;16.98;45.61;100158.53;5086971;28;20403;-82
2023/07/25 03:43:09;;;;;;;4.80;1.80;;;;;;;16.99;45.77;100171.28;5105553;28;20449;-82
2023/07/25 03:45:39;;;;;;;5.80;1.83;;;;;;;16.99;46.02;100168.50;5089823;28;20064;-82
2023/07/25 03:48:09;;;;;;;3.42;1.83;;;;;;;16.97;45.58;100162.34;5089441;28;20098;-81
2023/07/25 03:50:37;;;;;;;3.72;1.95;;;;;;;16.95;46.05;100162.50;5091769;28;20036;-83
2023/07/25 03:53:06;;;;;;;4.63;2.05;;;;;;;16.95;46.13;100161.63;5106789;27;20294;-81
2023/07/25 03:55:34;;;;;;;3.78;2.10;;;;;;;16.94;46.04;100168.22;5091415;28;20044;-79
2023/07/25 03:58:02;;;;;;;4.07;2.00;;;;;;;16.93;46.43;100166.50;5106622;28;20376;-79
2023/07/25 04:00:31;;;;;;;4.72;1.75;;;;;;;16.94;45.76;100166.31;5104981;28;20041;-81
2023/07/25 04:02:59;;;;;;;3.90;1.90;;;;;;;16.91;46.09;100169.44;5103327;28;20047;-82
2023/07/25 04:05:42;;;;;;;4.32;1.85;;;;;;;16.89;46.31;100167.94;5088413;28;20064;-82
2023/07/25 04:08:10;;;;;;;4.78;1.95;;;;;;;16.89;46.35;100155.00;5119182;27;20168;-81
2023/07/25 04:10:38;;;;;;;3.20;1.85;;;;;;;16.88;46.32;100158.78;5088416;28;20044;-82
2023/07/25 04:13:06;;;;;;;3.40;2.03;;;;;;;16.88;46.35;100155.19;5086416;28;20036;-82
2023/07/25 04:15:35;;;;;;;4.25;1.80;;;;;;;16.88;46.39;100156.03;5087574;28;20077;-82
2023/07/25 04:18:03;;;;;;;5.25;2.10;;;;;;;16.86;46.38;100151.75;5086521;28;20451;-82
2023/07/25 04:20:32;;;;;;;4.47;2.30;;;;;;;16.87;46.35;100154.31;5114097;27;20052;-82
2023/07/25 04:23:00;;;;;;;3.53;1.90;;;;;;;16.85;46.31;100155.53;5087248;28;20050;-81
2023/07/25 04:25:27;;;;;;;5.47;2.25;;;;;;;16.84;46.31;100151.94;5089221;28;20044;-82
2023/07/25 04:27:55;;;;;;;4.85;2.00;;;;;;;16.83;46.34;100143.81;5092156;28;20043;-82
2023/07/25 04:30:24;;;;;;;4.22;2.10;;;;;;;16.82;46.45;100151.28;5087841;28;20043;-82
2023/07/25 04:32:53;;;;;;;3.20;1.88;;;;;;;16.84;46.35;100148.31;5092624;28;20421;-81
2023/07/25 04:35:21;;;;;;;4.78;2.13;;;;;;;16.80;46.58;100153.38;5088609;28;20063;-81
2023/07/25 04:37:49;;;;;;;3.97;2.00;;;;;;;16.80;46.43;100158.03;5091024;28;20044;-82
2023/07/25 04:40:17;;;;;;;4.00;2.25;;;;;;;16.78;46.64;100144.41;5088657;28;20036;-82
2023/07/25 04:42:45;;;;;;;3.00;1.73;;;;;;;16.78;46.19;100152.69;5085306;28;20085;-82
2023/07/25 04:45:15;;;;;;;4.68;1.92;;;;;;;16.78;46.35;100151.84;5087879;28;20039;-82
2023/07/25 04:47:43;;;;;;;3.95;2.20;;;;;;;16.78;46.28;100158.22;5090950;28;20137;-82
2023/07/25 04:50:12;;;;;;;5.28;2.10;;;;;;;16.80;46.18;100160.81;5092419;28;20108;-82
2023/07/25 04:52:40;;;;;;;4.53;1.88;;;;;;;16.78;46.56;100163.75;5089643;28;20663;-82
2023/07/25 04:55:09;;;;;;;3.72;2.10;;;;;;;16.79;46.59;100165.47;5110033;28;20042;-82
2023/07/25 04:57:37;;;;;;;3.70;1.60;;;;;;;16.78;46.52;100168.41;5090055;28;20071;-82
2023/07/25 05:00:06;;;;;;;4.30;2.50;;;;;;;16.79;46.08;100168.22;5088007;28;20090;-82
2023/07/25 05:02:34;;;;;;;4.93;2.08;;;;;;;16.77;46.76;100166.69;5091078;28;20101;-82
2023/07/25 05:05:03;;;;;;;4.80;2.10;;;;;;;16.77;46.69;100161.19;5085805;28;20143;-81
2023/07/25 05:07:33;;;;;;;4.68;2.00;;;;;;;16.80;46.72;100169.09;5080133;28;20043;-83
2023/07/25 05:10:01;;;;;;;5.43;1.90;;;;;;;16.79;47.00;100168.22;5083392;28;20096;-83
2023/07/25 05:12:29;;;;;;;5.50;2.20;;;;;;;16.81;47.19;100157.84;5081297;28;20105;-81
2023/07/25 05:14:57;;;;;;;3.90;2.15;;;;;;;16.84;46.87;100159.34;5098287;28;20229;-81
2023/07/25 05:17:25;;;;;;;5.75;2.10;;;;;;;16.88;47.23;100156.03;5082932;28;20117;-83
2023/07/25 05:19:53;;;;;;;3.88;1.77;;;;;;;16.91;47.12;100154.75;5080266;28;20574;-83
2023/07/25 05:22:21;;;;;;;4.97;2.00;;;;;;;16.95;46.99;100151.44;5102362;28;20043;-82
2023/07/25 05:24:50;;;;;;;4.97;2.10;;;;;;;17.02;47.02;100148.78;5083310;28;20064;-82
2023/07/25 05:27:18;;;;;;;3.92;2.00;;;;;;;17.06;47.35;100150.13;5082746;28;20124;-82
2023/07/25 05:29:46;;;;;;;3.60;2.15;;;;;;;17.12;46.76;100152.13;5081033;28;20079;-82
2023/07/25 05:32:14;;;;;;;6.28;2.10;;;;;;;17.17;47.17;100155.13;5077723;28;20089;-82
2023/07/25 05:34:42;;;;;;;4.60;2.17;;;;;;;17.25;47.15;100159.69;5082165;28;20070;-83
2023/07/25 05:37:09;;;;;;;4.38;2.00;;;;;;;17.33;46.85;100163.19;5088674;28;20127;-83
2023/07/25 05:39:38;;;;;;;3.63;2.00;;;;;;;17.41;46.66;100165.00;5096303;28;20097;-83
2023/07/25 05:42:07;;;;;;;3.58;1.77;;;;;;;17.54;46.97;100161.53;5101548;28;20044;-83
2023/07/25 05:44:35;;;;;;;5.50;2.42;;;;;;;17.61;47.01;100156.91;5104855;28;20044;-83
2023/07/25 05:47:05;;;;;;;4.30;2.05;;;;;;;17.70;46.45;100159.34;5102846;28;20103;-81
2023/07/25 05:49:33;;;;;;;3.90;2.40;;;;;;;17.82;46.06;100161.59;5099695;28;20153;-81
2023/07/25 05:52:00;;;;;;;3.38;1.92;;;;;;;17.91;46.09;100161.28;5099868;28;20042;-82
2023/07/25 05:54:29;;;;;;;5.85;2.33;;;;;;;17.98;46.04;100167.72;5092467;28;20104;-82
2023/07/25 05:56:57;;;;;;;5.85;2.10;;;;;;;18.06;45.26;100172.28;5089449;28;20358;-82
2023/07/25 05:59:26;;;;;;;3.30;1.77;;;;;;;18.11;45.11;100172.53;5090210;28;20483;-83
2023/07/25 06:01:54;;;;;;;5.13;1.85;;;;;;;18.13;44.92;100175.97;5089029;28;20058;-82
2023/07/25 06:04:23;;;;;;;4.60;1.88;;;;;;;18.14;44.48;100184.03;5089635;28;20056;-82
2023/07/25 06:06:51;;;;;;;3.15;1.52;;;;;;;18.15;44.27;100183.00;5082737;28;20047;-84
2023/07/25 06:09:21;;;;;;;3.25;1.48;;;;;;;18.16;44.17;100186.63;5087551;28;20063;-83
2023/07/25 06:11:51;;;;;;;3.38;1.75;;;;;;;18.14;43.72;100189.59;5087225;28;20036;-83
2023/07/25 06:14:19;;;;;;;4.25;1.83;;;;;;;18.15;44.12;100199.63;5088708;28;20425;-83
2023/07/25 06:16:48;;;;;;;3.47;1.63;;;;;;;18.16;44.04;100206.00;5089218;28;20047;-82
2023/07/25 06:19:16;;;;;;;4.20;1.83;;;;;;;18.12;43.62;100205.56;5103510;28;20052;-82
2023/07/25 06:21:44;;;;;;;5.05;1.92;;;;;;;18.10;43.88;100202.13;5089080;28;20138;-84
2023/07/25 06:24:13;;;;;;;5.45;1.73;;;;;;;18.11;44.15;100208.53;5087774;28;20044;-84
2023/07/25 06:26:41;;;;;;;7.80;2.20;;;;;;;18.11;43.93;100195.53;5084312;28;20093;-84
2023/07/25 06:29:09;;;;;;;3.22;1.90;;;;;;;18.12;43.63;100207.47;5082593;28;20064;-83
2023/07/25 06:31:37;;;;;;;2.80;1.63;;;;;;;18.12;43.72;100200.03;5088670;28;20127;-84
2023/07/25 06:34:06;;;;;;;3.17;1.58;;;;;;;18.14;43.25;100197.06;5102060;28;20414;-83
2023/07/25 06:36:35;;;;;;;4.65;1.63;;;;;;;18.14;43.56;100200.66;5088803;28;20081;-84
2023/07/25 06:39:03;;;;;;;4.38;1.65;;;;;;;18.17;43.23;100209.63;5085948;28;20503;-84
2023/07/25 06:41:31;;;;;;;4.10;1.70;;;;;;;18.20;43.20;100210.09;5090996;28;20054;-83
2023/07/25 06:44:03;;;;;;;3.55;1.50;;;;;;;18.25;43.38;100213.13;5092423;28;20541;-83
2023/07/25 06:46:31;;;;;;;2.97;1.42;;;;;;;18.29;42.89;100208.91;5091170;28;20152;-81
2023/07/25 06:48:59;;;;;;;3.50;1.42;;;;;;;18.35;43.32;100204.47;5085108;28;20052;-79
2023/07/25 06:51:28;;;;;;;3.55;1.48;;;;;;;18.44;42.96;100211.56;5090935;28;20048;-78
2023/07/25 06:53:56;;;;;;;3.58;1.42;;;;;;;18.49;42.59;100211.84;5092730;28;20508;-81
2023/07/25 06:56:24;;;;;;;3.53;1.33;;;;;;;18.55;42.05;100205.53;5092120;28;20068;-82
2023/07/25 06:59:04;;;;;;;2.47;1.40;;;;;;;18.61;42.06;100215.78;5090477;28;20051;-82
2023/07/25 07:01:38;;;;;;;3.25;1.40;;;;;;;18.64;41.97;100214.50;5090595;28;20047;-81
2023/07/25 07:04:06;;;;;;;2.67;1.10;;;;;;;18.70;42.02;100222.03;5089479;28;20114;-82
2023/07/25 07:06:36;;;;;;;5.47;1.73;;;;;;;18.73;41.42;100219.69;5118870;27;20206;-83
2023/07/25 07:09:04;;;;;;;2.95;1.67;;;;;;;18.73;41.33;100224.38;5092362;28;20044;-81
2023/07/25 07:11:31;;;;;;;5.53;1.90;;;;;;;18.77;41.28;100229.34;5089103;28;20073;-78
2023/07/25 07:14:00;;;;;;;4.40;2.00;;;;;;;18.78;41.11;100227.41;5086062;28;20062;-79
2023/07/25 07:16:28;;;;;;;4.57;1.92;;;;;;;18.78;40.93;100222.72;5087379;28;20144;-79
2023/07/25 07:18:56;;;;;;;4.45;2.05;;;;;;;18.82;41.29;100225.94;5087890;28;20036;-78
2023/07/25 07:21:24;;;;;;;3.78;2.10;;;;;;;18.85;40.67;100223.63;5106414;28;20063;-80
2023/07/25 07:23:53;;;;;;;4.43;1.83;;;;;;;18.89;40.95;100224.91;5091023;28;20043;-80
2023/07/25 07:26:21;;;;;;;4.18;1.60;;;;;;;18.93;41.22;100216.19;5098428;28;20051;-79
2023/07/25 07:28:49;;;;;;;3.03;1.65;;;;;;;18.97;40.68;100212.81;5111124;28;20040;-79
2023/07/25 07:31:23;;;;;;;4.45;1.77;;;;;;;19.01;40.41;100213.25;5109772;28;20080;-79
2023/07/25 07:33:51;;;;;;;5.97;1.70;;;;;;;19.04;40.37;100216.50;5106208;27;20090;-80
2023/07/25 07:36:19;;;;;;;4.60;1.90;;;;;;;19.08;40.41;100214.16;5091546;28;20154;-80
2023/07/25 07:38:47;;;;;;;4.97;2.30;;;;;;;19.09;40.06;100213.94;5091063;28;20044;-81
2023/07/25 07:41:18;;;;;;;5.68;2.47;;;;;;;19.12;39.50;100212.69;5089672;28;20055;-80
2023/07/25 07:43:46;;;;;;;4.68;2.88;;;;;;;19.07;39.35;100212.44;5090705;28;20363;-80
2023/07/25 07:46:14;;;;;;;4.45;2.55;;;;;;;19.08;39.45;100217.78;5077876;28;20040;-80
2023/07/25 07:48:43;;;;;;;5.15;2.65;;;;;;;19.07;39.65;100218.84;5086402;28;20070;-81
2023/07/25 07:51:13;;;;;;;6.82;3.75;;;;;;;19.04;39.17;100215.63;5088770;27;20096;-79
2023/07/25 07:53:41;;;;;;;7.30;4.35;;;;;;;19.01;39.12;100229.91;5091467;28;20112;-79
2023/07/25 07:56:10;;;;;;;7.65;3.88;;;;;;;18.98;39.24;100228.38;5093626;28;20557;-79
2023/07/25 08:03:16;;;;;;;5.75;2.58;;;;;;;18.86;38.14;100239.22;5006175;28;20012;-82
2023/07/25 08:06:13;;;;;;;4.43;2.40;;;;;;;18.82;39.46;100228.72;5108846;28;20054;-79
2023/07/25 08:08:41;;;;;;;5.00;2.35;;;;;;;18.82;39.35;100231.47;5098357;28;20044;-82
2023/07/25 08:11:09;;;;;;;3.47;2.35;;;;;;;18.80;39.25;100234.44;5109128;28;20499;-82
2023/07/25 08:13:38;;;;;;;4.63;2.05;;;;;;;18.79;39.44;100235.53;5089917;28;20101;-80
2023/07/25 08:16:06;;;;;;;3.92;2.00;;;;;;;18.79;39.08;100240.22;5087870;28;20664;-81
2023/07/25 08:18:37;;;;;;;4.70;1.70;;;;;;;18.79;38.42;100237.44;5091070;28;20450;-83
2023/07/25 08:21:06;;;;;;;3.70;1.95;;;;;;;18.73;38.89;100230.78;5090681;28;20581;-83
2023/07/25 08:23:34;;;;;;;4.95;1.90;;;;;;;18.73;37.98;100238.25;5091415;28;20127;-82
2023/07/25 08:26:01;;;;;;;4.65;1.75;;;;;;;18.66;38.29;100229.03;5088502;28;20097;-81
2023/07/25 08:28:29;;;;;;;2.92;1.50;;;;;;;18.66;38.36;100240.13;5086139;28;20038;-82
2023/07/25 08:31:01;;;;;;;5.30;1.80;;;;;;;18.63;37.63;100235.84;5089829;28;20093;-82
2023/07/25 08:33:35;;;;;;;4.00;1.50;;;;;;;18.58;37.99;100237.50;5091456;28;20359;-83
2023/07/25 08:36:06;;;;;;;4.40;1.65;;;;;;;18.55;38.12;100241.56;5093578;28;20066;-82
2023/07/25 08:38:43;;;;;;;5.10;1.70;;;;;;;18.52;37.66;100244.72;5114815;27;20092;-82
2023/07/25 08:41:16;;;;;;;3.38;1.60;;;;;;;18.52;37.87;100244.72;5087559;28;20043;-84
2023/07/25 08:43:53;;;;;;;2.60;1.30;;;;;;;18.47;38.26;100241.66;5108985;28;20040;-81
2023/07/25 08:46:29;;;;;;;3.70;1.40;;;;;;;18.47;37.33;100250.81;5077320;27;20051;-82
2023/07/25 08:49:35;;;;;;;3.20;1.30;;;;;;;18.44;38.11;100248.47;5059590;28;20043;-81
2023/07/25 08:52:10;;;;;;;2.38;1.13;;;;;;;18.45;37.87;100249.31;5084799;28;20495;-81
2023/07/25 08:54:39;;;;;;;2.85;1.50;;;;;;;18.44;38.22;100247.59;5087819;28;20144;-82
2023/07/25 08:57:23;;;;;;;3.17;1.60;;;;;;;18.45;38.45;100246.53;5091036;28;20039;-80
2023/07/25 08:59:54;;;;;;;4.30;1.58;;;;;;;18.44;38.45;100256.78;5092163;28;20043;-80
2023/07/25 09:02:22;;;;;;;2.58;1.40;;;;;;;18.42;37.75;100245.03;5107523;28;20050;-79
2023/07/25 09:04:51;;;;;;;3.60;1.65;;;;;;;18.42;38.07;100244.16;5111955;28;20223;-79
2023/07/25 09:07:20;;;;;;;2.67;1.35;;;;;;;18.44;38.32;100261.44;5110096;28;20040;-83
2023/07/25 09:09:48;;;;;;;3.83;1.95;;;;;;;18.44;38.28;100255.91;5113594;28;20103;-80
2023/07/25 09:12:16;;;;;;;2.85;1.75;;;;;;;18.46;38.07;100254.66;5095237;28;20039;-77
2023/07/25 09:14:44;;;;;;;3.25;1.90;;;;;;;18.46;38.49;100249.13;5106425;28;20036;-78
2023/07/25 09:17:12;;;;;;;3.35;1.65;;;;;;;18.48;37.83;100251.66;5108379;28;20060;-79
2023/07/25 09:19:42;;;;;;;3.00;1.90;;;;;;;18.51;37.64;100254.94;5120398;27;20075;-83
2023/07/25 09:22:27;;;;;;;4.38;2.00;;;;;;;18.52;36.86;100255.78;5086276;28;20078;-82
2023/07/25 09:24:56;;;;;;;4.90;2.22;;;;;;;18.50;37.32;100256.00;5093446;28;20535;-84
2023/07/25 09:27:29;;;;;;;4.97;2.50;;;;;;;18.57;37.32;100264.34;5095400;28;20129;-85
2023/07/25 09:29:57;;;;;;;;;;;;;;;18.26;38.24;100259.16;5115417;28;20146;-83
2023/07/25 09:32:32;;;;;;;5.40;2.95;;;;;;;18.56;37.73;100264.53;5096268;28;19935;-83
2023/07/25 09:35:05;;;;;;;4.47;2.70;;;;;;;18.60;37.71;100263.97;5094438;28;20035;-84
2023/07/25 09:37:35;;;;;;;4.82;3.17;;;;;;;18.63;37.35;100259.94;5093670;28;20090;-82
2023/07/25 09:40:08;;;;;;;3.88;2.70;;;;;;;18.66;37.60;100265.91;5113575;28;20099;-83
2023/07/25 09:42:41;;;;;;;5.93;2.80;;;;;;;18.67;37.64;100264.88;5087574;28;20078;-84
2023/07/25 09:48:18;;;;;;;3.65;1.90;;;;;;;18.68;37.77;100263.81;5112970;28;20251;-82
2023/07/25 09:50:46;;;;;;;;;;;;;;;18.46;38.34;100264.88;5096588;28;20074;-83
2023/07/25 09:53:18;;;;;;;3.47;1.95;;;;;;;18.76;37.65;100271.13;5094641;28;19952;-83
2023/07/25 09:55:51;;;;;;;5.18;2.50;;;;;;;18.80;37.28;100264.13;5109403;28;20398;-80
2023/07/25 09:58:26;;;;;;;4.63;2.13;;;;;;;18.85;37.76;100268.00;5093574;28;20104;-84
2023/07/25 10:00:59;;;;;;;3.55;2.10;;;;;;;18.88;37.79;100266.75;5091320;28;20032;-82
2023/07/25 10:03:29;;;;;;;3.55;1.92;;;;;;;18.97;37.05;100259.94;5090134;28;20039;-82
2023/07/25 10:29:36;;;;;;;3.45;1.85;;;;;;;19.35;36.19;100262.34;5028817;28;20055;-82
2023/07/25 10:32:08;;;;;;;4.10;1.40;;;;;;;19.44;36.11;100253.63;5040388;28;20049;-84
2023/07/25 10:34:50;;;;;;;3.50;1.77;;;;;;;19.53;35.29;100240.44;5087573;28;20047;-84
2023/07/25 10:37:26;;;;;;;2.58;1.60;;;;;;;19.59;36.58;100250.69;5090109;28;20058;-85
2023/07/25 10:40:05;;;;;;;3.05;1.65;;;;;;;19.70;35.65;100258.44;5092790;28;20059;-83
2023/07/25 10:42:58;;;;;;;2.53;1.38;;;;;;;19.77;35.52;100259.31;5095438;27;20101;-83
2023/07/25 10:45:55;;;;;;;3.05;1.90;;;;;;;19.84;35.78;100250.97;5015452;28;20146;-61
2023/07/25 10:48:35;;;;;;;4.07;1.63;;;;;;;19.95;35.18;100255.97;5026767;28;20548;-61
2023/07/25 10:51:08;;;;;;;2.25;1.58;;;;;;;20.01;35.79;100253.19;5021894;28;20496;-61
2023/07/25 10:53:36;;;;;;;;;;;;;;;19.77;36.76;100250.97;5033635;28;20544;-60
2023/07/25 10:56:15;;;;;;;4.93;1.60;;;;;;;20.14;35.19;100254.28;5022622;28;19921;-61
2023/07/25 10:59:03;;;;;;;4.20;1.45;;;;;;;20.20;35.62;100257.03;5024399;28;20044;-61
2023/07/25 11:01:47;;;;;;;4.40;1.70;;;;;;;20.27;34.58;100248.75;5026237;28;20053;-61
2023/07/25 11:04:36;;;;;;;4.32;1.48;;;;;;;20.29;34.95;100249.38;5025958;28;20295;-61
2023/07/25 11:07:10;;;;;;;3.75;1.63;;;;;;;20.37;34.49;100252.78;5017872;28;20072;-61
2023/07/25 11:09:42;;;;;;;2.92;1.40;;;;;;;20.42;34.37;100248.53;5021599;28;20532;-62
2023/07/25 11:12:11;;;;;;;;;;;;;;;20.15;35.95;100262.41;5022787;28;20133;-60
2023/07/25 11:14:43;;;;;;;4.05;1.60;;;;;;;20.45;35.08;100260.06;5021315;28;20274;-61
2023/07/25 11:17:14;;;;;;;;;;;;;;;20.21;36.06;100272.66;5017805;28;20049;-61
2023/07/25 11:19:42;;;;;;;3.00;1.25;;;;;;;20.48;35.44;100267.97;5025971;28;19921;-61
2023/07/25 11:22:11;;;;;;;4.20;1.80;;;;;;;20.53;35.22;100262.63;5027044;28;20037;-61
2023/07/25 11:24:42;;;;;;;3.97;1.50;;;;;;;20.55;34.78;100267.97;5027278;28;20050;-61
2023/07/25 11:27:11;;;;;;;3.08;1.52;;;;;;;20.49;34.97;100264.13;5026689;28;20053;-61
2023/07/25 11:29:39;;;;;;;4.93;1.50;;;;;;;20.47;35.11;100260.72;5023437;28;20047;-61
2023/07/25 11:32:08;;;;;;;4.03;1.40;;;;;;;20.45;35.13;100265.63;5026064;28;20037;-61
2023/07/25 11:34:38;;;;;;;2.58;1.27;;;;;;;20.42;34.54;100270.75;5015962;28;20543;-61
2023/07/25 11:37:10;;;;;;;2.47;1.20;;;;;;;20.37;34.31;100277.81;5027641;28;20582;-61
2023/07/25 11:39:38;;;;;;;;;;;;;;;20.04;35.59;100273.28;5024042;28;20048;-61
2023/07/25 11:42:07;;;;;;;3.38;1.70;;;;;;;20.26;34.86;100277.59;5021464;28;19951;-61
2023/07/25 11:44:36;;;;;;;2.53;1.40;;;;;;;20.23;34.73;100276.09;5022016;28;20045;-61
2023/07/25 11:47:04;;;;;;;2.53;1.30;;;;;;;20.22;34.79;100279.06;5024252;28;20411;-61
2023/07/25 11:49:32;;;;;;;3.40;1.67;;;;;;;20.19;35.03;100272.03;5021385;28;20505;-61
2023/07/25 11:52:18;;;;;;;1.85;1.13;;;;;;;20.19;34.94;100285.06;5022945;28;20099;-61
2023/07/25 11:54:46;;;;;;;4.00;1.50;;;;;;;20.16;34.88;100294.66;5020452;28;20476;-61
2023/07/25 11:57:14;;;;;;;3.45;1.50;;;;;;;20.15;34.66;100279.06;5023412;28;20381;-61
2023/07/25 11:59:43;;;;;;;3.38;1.58;;;;;;;20.15;35.06;100278.22;5031134;28;20048;-61
2023/07/25 12:02:12;;;;;;;2.95;1.60;;;;;;;20.17;34.86;100284.41;5026964;28;20041;-61
2023/07/25 12:04:43;;;;;;;3.25;1.52;;;;;;;20.18;34.75;100300.88;5027936;28;20046;-61
2023/07/25 12:07:12;;;;;;;3.13;1.60;;;;;;;20.14;34.92;100301.50;5024662;28;20081;-61
2023/07/25 12:09:50;;;;;;;3.95;1.60;;;;;;;20.19;34.56;100307.31;5022935;28;20038;-59